Terminal Aerodrome Forecast
Issued by NWS Wilmington, OH

Current Version | Previous Version | Graphics & Text | Print | Product List | Glossary Off
Versions: 1 2 3 4 5 6 7 8 9 10 11 12 13 14 15 16 17 18 19 20 21 22 23 24 25 26

611
FTUS41 KILN 241728
TAFCMH
TAF
KCMH 241728Z 2418/2518 07008KT 3SM -SHRA BR SCT009 OVC035
      TEMPO 2418/2421 2SM -SHRA BR OVC009
     FM242100 08008KT 3SM -SHRA BR OVC009
     FM250300 14011G20KT 2SM +SHRA BR OVC009 WS020/20050KT
     FM250900 21016G31KT 3SM +SHRA BR OVC013
     FM251100 23016G28KT 5SM -SHRA BR OVC018
     FM251500 25016G24KT P6SM SCT025=

USA.gov is the U.S. government's official web portal to all federal, state and local government web resources and services.